Time;durP1;ratioP1;P1;durP2;ratioP2;P2;SDS_P1;SDS_P2;PMS_P1;PMS_P2;Temp;Humidity;BMP_temperature;BMP_pressure;BME280_temperature;BME280_humidity;BME280_pressure;Samples;Min_cycle;Max_cycle;Signal;HPM_P1;HPM_P2
2023/12/04 00:00:47;;;;;;;4.20;1.70;;;5.10;99.90;;;;;;5133159;27;20139;-79
2023/12/04 00:03:13;;;;;;;3.55;1.80;;;5.10;99.90;;;;;;5132287;27;20031;-79
2023/12/04 00:05:42;;;;;;;4.15;2.00;;;5.10;99.90;;;;;;5132761;27;20027;-80
2023/12/04 00:08:08;;;;;;;3.47;1.80;;;5.10;99.90;;;;;;5132098;27;20027;-77
2023/12/04 00:10:34;;;;;;;2.25;1.70;;;5.10;99.90;;;;;;5132403;27;20827;-78
2023/12/04 00:12:59;;;;;;;3.03;2.08;;;5.10;99.90;;;;;;5132358;27;20088;-78
2023/12/04 00:15:25;;;;;;;4.22;1.83;;;5.10;99.90;;;;;;5131923;27;20468;-78
2023/12/04 00:17:51;;;;;;;4.70;2.00;;;5.10;99.90;;;;;;5132096;27;20023;-78
2023/12/04 00:20:16;;;;;;;3.58;1.90;;;5.10;99.90;;;;;;5131819;27;20038;-79
2023/12/04 00:22:42;;;;;;;4.90;2.13;;;5.10;99.90;;;;;;5132910;27;20119;-78
2023/12/04 00:25:08;;;;;;;11.82;2.38;;;5.10;99.90;;;;;;5132161;27;20034;-79
2023/12/04 00:27:34;;;;;;;4.35;2.05;;;5.10;99.90;;;;;;5133424;27;20523;-78
2023/12/04 00:30:00;;;;;;;3.50;2.03;;;5.10;99.90;;;;;;5132979;27;20102;-78
2023/12/04 00:32:25;;;;;;;3.60;1.70;;;5.10;99.90;;;;;;5131416;27;20023;-78
2023/12/04 00:34:51;;;;;;;4.53;1.88;;;5.20;99.90;;;;;;5131827;27;20015;-78
2023/12/04 00:37:17;;;;;;;3.83;1.95;;;5.20;99.90;;;;;;5112672;27;20038;-78
2023/12/04 00:39:43;;;;;;;4.57;2.20;;;5.10;99.90;;;;;;5132147;27;20031;-79
2023/12/04 00:42:09;;;;;;;6.32;1.98;;;5.10;99.90;;;;;;5132130;27;20106;-78
2023/12/04 00:44:34;;;;;;;3.85;2.08;;;5.10;99.90;;;;;;5131827;27;20167;-79
2023/12/04 00:47:00;;;;;;;3.40;1.90;;;5.20;99.90;;;;;;5131596;27;20037;-79
2023/12/04 00:49:26;;;;;;;4.60;1.83;;;5.20;99.90;;;;;;5112666;27;20421;-79
2023/12/04 00:51:51;;;;;;;4.90;2.10;;;5.20;99.90;;;;;;5131872;27;20353;-78
2023/12/04 00:54:17;;;;;;;5.30;2.30;;;5.10;99.90;;;;;;5131419;27;20037;-79
2023/12/04 00:56:43;;;;;;;6.13;2.83;;;5.20;99.90;;;;;;5132286;27;20023;-79
2023/12/04 00:59:09;;;;;;;6.85;2.00;;;5.20;99.90;;;;;;5130901;27;20435;-79
2023/12/04 01:01:38;;;;;;;2.85;1.98;;;5.20;99.90;;;;;;5113016;27;20027;-78
2023/12/04 01:04:04;;;;;;;4.50;2.33;;;5.20;99.90;;;;;;5131837;27;20037;-80
2023/12/04 01:06:30;;;;;;;3.83;2.03;;;5.10;99.90;;;;;;5131935;27;20038;-79
2023/12/04 01:08:56;;;;;;;3.38;2.20;;;5.20;99.90;;;;;;5132077;27;20058;-79
2023/12/04 01:11:22;;;;;;;4.80;2.10;;;5.20;99.90;;;;;;5132151;27;20027;-79
2023/12/04 01:13:49;;;;;;;8.25;2.22;;;5.20;99.90;;;;;;5131893;27;20417;-79
2023/12/04 01:16:15;;;;;;;5.18;2.30;;;5.20;99.90;;;;;;5131365;27;20527;-78
2023/12/04 01:18:42;;;;;;;5.95;2.20;;;5.20;99.90;;;;;;5113758;27;20351;-78
2023/12/04 01:21:11;;;;;;;6.82;2.08;;;5.20;99.90;;;;;;5131538;27;20355;-77
2023/12/04 01:23:37;;;;;;;9.98;2.22;;;5.20;99.90;;;;;;5131680;27;20028;-79
2023/12/04 01:26:05;;;;;;;3.08;1.98;;;5.20;99.90;;;;;;5131558;27;20035;-79
2023/12/04 01:28:31;;;;;;;8.23;2.35;;;5.20;99.90;;;;;;5132068;27;20031;-79
2023/12/04 01:30:57;;;;;;;8.40;1.98;;;5.20;99.90;;;;;;5131755;27;20042;-79
2023/12/04 01:33:23;;;;;;;4.13;2.05;;;5.30;99.90;;;;;;5131533;27;20037;-80
2023/12/04 01:35:48;;;;;;;3.80;2.65;;;5.30;99.90;;;;;;5131618;27;20050;-79
2023/12/04 01:38:14;;;;;;;2.85;1.50;;;5.30;99.90;;;;;;5131245;27;20076;-78
2023/12/04 01:40:40;;;;;;;3.80;1.80;;;5.30;99.90;;;;;;5112710;28;20047;-79
2023/12/04 01:43:06;;;;;;;4.25;1.73;;;5.30;99.90;;;;;;5131600;28;20102;-79
2023/12/04 01:45:31;;;;;;;3.80;1.60;;;5.30;99.90;;;;;;5131381;28;20027;-79
2023/12/04 01:47:58;;;;;;;1.80;1.50;;;5.30;99.90;;;;;;5131393;28;20121;-79
2023/12/04 01:50:24;;;;;;;2.75;1.60;;;5.20;99.90;;;;;;5130855;28;20378;-79
2023/12/04 01:52:51;;;;;;;4.13;1.60;;;5.30;99.90;;;;;;5131886;28;20087;-79
2023/12/04 01:55:17;;;;;;;2.47;1.50;;;5.30;99.90;;;;;;5130635;28;20066;-80
2023/12/04 01:57:43;;;;;;;3.03;1.60;;;5.20;99.90;;;;;;5132482;27;20027;-79
2023/12/04 02:00:11;;;;;;;2.70;1.88;;;5.20;99.90;;;;;;5134789;27;20046;-78
2023/12/04 02:02:44;;;;;;;5.13;1.88;;;5.20;99.90;;;;;;5136122;27;20356;-78
2023/12/04 02:05:10;;;;;;;5.28;2.05;;;5.10;99.90;;;;;;5116233;27;20019;-78
2023/12/04 02:07:36;;;;;;;5.10;1.92;;;5.10;99.90;;;;;;5135521;27;20034;-78
2023/12/04 02:10:03;;;;;;;9.05;1.95;;;5.10;99.90;;;;;;5135465;27;20031;-78
2023/12/04 02:12:30;;;;;;;3.58;1.98;;;5.20;99.90;;;;;;5135223;27;20027;-78
2023/12/04 02:14:56;;;;;;;7.85;2.30;;;5.20;99.90;;;;;;5135806;27;20060;-78
2023/12/04 02:17:24;;;;;;;3.10;1.63;;;5.20;99.90;;;;;;5135377;27;20736;-79
2023/12/04 02:19:49;;;;;;;6.95;1.80;;;5.20;99.90;;;;;;5135008;27;20165;-78
2023/12/04 02:22:17;;;;;;;3.17;2.20;;;5.20;99.90;;;;;;5135161;27;20095;-77
2023/12/04 02:24:42;;;;;;;4.47;2.28;;;5.20;99.90;;;;;;5135142;27;20034;-77
2023/12/04 02:27:20;;;;;;;3.40;2.15;;;5.20;99.90;;;;;;5134827;27;20027;-77
2023/12/04 02:29:52;;;;;;;8.90;2.78;;;5.20;99.90;;;;;;5135599;27;20035;-77
2023/12/04 02:32:20;;;;;;;6.33;2.97;;;5.20;99.90;;;;;;5134890;27;20023;-78
2023/12/04 02:34:48;;;;;;;5.75;2.40;;;5.30;99.90;;;;;;5135800;27;20020;-77
2023/12/04 02:37:15;;;;;;;5.50;2.50;;;5.20;99.90;;;;;;5115987;27;20023;-78
2023/12/04 02:39:41;;;;;;;4.45;2.33;;;5.20;99.90;;;;;;5116653;27;20492;-77
2023/12/04 02:42:07;;;;;;;4.28;2.85;;;5.10;99.90;;;;;;5135186;27;20019;-77
2023/12/04 02:44:33;;;;;;;7.38;2.80;;;5.10;99.90;;;;;;5134117;27;20027;-78
2023/12/04 02:46:59;;;;;;;6.63;2.90;;;5.00;99.90;;;;;;5116398;27;20102;-79
2023/12/04 02:49:24;;;;;;;6.47;2.63;;;5.00;99.90;;;;;;5134362;27;20055;-77
2023/12/04 02:51:50;;;;;;;4.43;2.33;;;5.00;99.90;;;;;;5134288;27;20093;-77
2023/12/04 02:54:16;;;;;;;3.85;2.30;;;4.90;99.90;;;;;;5134167;27;20030;-79
2023/12/04 02:56:41;;;;;;;6.93;2.40;;;4.90;99.90;;;;;;5133876;28;20409;-78
2023/12/04 02:59:07;;;;;;;4.20;2.25;;;4.90;99.90;;;;;;5133187;28;20404;-78
2023/12/04 03:01:33;;;;;;;6.38;2.53;;;4.90;99.90;;;;;;5132774;28;20027;-79
2023/12/04 03:03:58;;;;;;;5.25;2.47;;;4.80;99.90;;;;;;5132944;28;20388;-79
2023/12/04 03:06:24;;;;;;;5.13;2.65;;;4.80;99.90;;;;;;5132588;28;20188;-78
2023/12/04 03:08:50;;;;;;;5.85;2.53;;;4.80;99.90;;;;;;5132924;27;20421;-78
2023/12/04 03:11:15;;;;;;;4.60;2.20;;;4.80;99.90;;;;;;5132539;28;20101;-78
2023/12/04 03:13:41;;;;;;;4.78;2.55;;;4.70;99.90;;;;;;5133337;28;20023;-78
2023/12/04 03:16:15;;;;;;;3.90;2.50;;;4.70;99.90;;;;;;5114657;28;20027;-78
2023/12/04 03:18:41;;;;;;;6.47;2.58;;;4.70;99.90;;;;;;5133286;28;20054;-78
2023/12/04 03:21:07;;;;;;;7.63;2.47;;;4.70;99.90;;;;;;5132978;28;20487;-78
2023/12/04 03:23:33;;;;;;;7.53;2.53;;;4.70;99.90;;;;;;5132285;28;20033;-79
2023/12/04 03:25:58;;;;;;;3.90;2.10;;;4.80;99.90;;;;;;5133027;28;20460;-78
2023/12/04 03:28:24;;;;;;;3.17;2.10;;;4.80;99.90;;;;;;5132578;28;20118;-78
2023/12/04 03:30:50;;;;;;;5.25;2.33;;;4.80;99.90;;;;;;5114572;28;20035;-78
2023/12/04 03:33:15;;;;;;;3.67;2.05;;;4.80;99.90;;;;;;5132179;28;20046;-79
2023/12/04 03:35:41;;;;;;;6.18;2.20;;;4.70;99.90;;;;;;5133223;28;20090;-78
2023/12/04 03:38:07;;;;;;;2.75;2.10;;;4.70;99.90;;;;;;5133011;28;20474;-78
2023/12/04 03:40:32;;;;;;;4.85;2.63;;;4.60;99.90;;;;;;5132515;28;20829;-78
2023/12/04 03:42:58;;;;;;;5.07;2.70;;;4.60;99.90;;;;;;5133053;28;20023;-78
2023/12/04 03:45:24;;;;;;;8.82;2.60;;;4.50;99.90;;;;;;5114134;28;20038;-78
2023/12/04 03:47:50;;;;;;;3.63;2.35;;;4.50;99.90;;;;;;5132844;28;20079;-78
2023/12/04 03:50:16;;;;;;;5.28;2.40;;;4.50;99.90;;;;;;5113944;28;20310;-79
2023/12/04 03:52:42;;;;;;;3.65;2.47;;;4.50;99.90;;;;;;5132934;28;20034;-78
2023/12/04 03:55:09;;;;;;;5.10;2.65;;;4.40;99.90;;;;;;5091769;27;1166113;-77
2023/12/04 03:57:34;;;;;;;4.38;2.30;;;4.40;99.90;;;;;;5133221;27;20258;-78
2023/12/04 04:00:00;;;;;;;3.55;1.92;;;4.40;99.90;;;;;;5133446;27;20086;-78
2023/12/04 04:02:26;;;;;;;2.75;2.40;;;4.30;99.90;;;;;;5132683;27;20030;-78
2023/12/04 04:04:52;;;;;;;5.70;2.00;;;4.30;99.90;;;;;;5133131;27;20396;-78
2023/12/04 04:07:18;;;;;;;4.82;2.53;;;4.30;99.90;;;;;;5132595;27;20031;-79
2023/12/04 04:09:44;;;;;;;4.55;2.60;;;4.30;99.90;;;;;;5133755;27;20115;-78
2023/12/04 04:12:09;;;;;;;3.78;2.40;;;4.30;99.90;;;;;;5133114;27;20030;-78
2023/12/04 04:14:35;;;;;;;5.53;2.47;;;4.30;99.90;;;;;;5132607;27;20112;-77
2023/12/04 04:17:01;;;;;;;2.40;2.20;;;4.30;99.90;;;;;;5133524;27;20059;-78
2023/12/04 04:19:26;;;;;;;4.80;2.28;;;4.30;99.90;;;;;;5132372;27;20201;-78
2023/12/04 04:21:52;;;;;;;2.72;2.25;;;4.30;99.90;;;;;;5132542;27;20103;-77
2023/12/04 04:24:18;;;;;;;3.83;2.42;;;4.30;99.90;;;;;;5132864;27;20023;-79
2023/12/04 04:26:43;;;;;;;2.95;2.10;;;4.30;99.90;;;;;;5133484;27;20439;-77
2023/12/04 04:29:09;;;;;;;3.55;2.15;;;4.30;99.90;;;;;;5133969;27;20051;-78
2023/12/04 04:31:35;;;;;;;2.40;2.20;;;4.30;99.90;;;;;;5132452;27;20023;-78
2023/12/04 04:34:01;;;;;;;5.20;1.88;;;4.30;99.90;;;;;;5132972;27;20023;-78
2023/12/04 04:36:26;;;;;;;2.20;2.00;;;4.20;99.90;;;;;;5132513;27;20380;-79
2023/12/04 04:38:52;;;;;;;3.08;2.10;;;4.20;99.90;;;;;;5132758;27;20126;-79
2023/12/04 04:41:18;;;;;;;3.92;2.30;;;4.20;99.90;;;;;;5132171;27;20115;-79
2023/12/04 04:43:44;;;;;;;2.17;1.98;;;4.20;99.90;;;;;;5132353;27;20384;-78
2023/12/04 04:46:10;;;;;;;2.92;2.63;;;4.30;99.90;;;;;;5132586;27;20024;-78
2023/12/04 04:48:35;;;;;;;3.75;2.90;;;4.20;99.90;;;;;;5131940;27;20080;-78
2023/12/04 04:51:01;;;;;;;4.30;2.70;;;4.10;99.90;;;;;;5132032;27;20088;-76
2023/12/04 04:53:27;;;;;;;3.05;2.75;;;4.10;99.90;;;;;;5131793;27;20043;-78
2023/12/04 04:55:53;;;;;;;3.65;2.80;;;4.10;99.90;;;;;;5132113;27;20042;-75
2023/12/04 04:58:19;;;;;;;4.57;2.95;;;4.10;99.90;;;;;;5131825;27;20058;-77
2023/12/04 05:00:47;;;;;;;3.17;2.88;;;4.00;99.90;;;;;;5131975;27;20070;-78
2023/12/04 05:03:12;;;;;;;4.18;3.30;;;4.00;99.90;;;;;;5132255;27;20031;-77
2023/12/04 05:05:38;;;;;;;4.03;3.60;;;4.00;99.90;;;;;;5113147;27;20231;-76
2023/12/04 05:08:04;;;;;;;5.90;3.67;;;3.90;99.90;;;;;;5113298;27;20023;-77
2023/12/04 05:10:30;;;;;;;4.38;3.33;;;3.90;99.90;;;;;;5131360;27;20146;-76
2023/12/04 05:12:55;;;;;;;5.70;3.90;;;3.90;99.90;;;;;;5132091;27;20033;-76
2023/12/04 05:15:21;;;;;;;5.97;3.72;;;3.90;99.90;;;;;;5131102;27;20132;-77
2023/12/04 05:17:47;;;;;;;4.47;4.05;;;3.90;99.90;;;;;;5132041;27;20026;-77
2023/12/04 05:20:13;;;;;;;5.85;3.90;;;3.90;99.90;;;;;;5131933;27;20110;-77
2023/12/04 05:22:40;;;;;;;7.35;4.40;;;3.80;99.90;;;;;;5131429;27;20027;-77
2023/12/04 05:25:06;;;;;;;4.60;4.03;;;3.80;99.90;;;;;;5132238;27;20027;-78
2023/12/04 05:27:32;;;;;;;5.47;4.10;;;3.80;99.90;;;;;;5131395;27;20019;-77
2023/12/04 05:29:58;;;;;;;4.38;3.97;;;3.80;99.90;;;;;;5132325;27;20027;-78
2023/12/04 05:32:23;;;;;;;4.88;4.30;;;3.80;99.90;;;;;;5131197;27;20087;-78
2023/12/04 05:34:49;;;;;;;5.75;4.43;;;3.80;99.90;;;;;;5132062;27;20368;-78
2023/12/04 05:37:15;;;;;;;6.10;4.65;;;3.70;99.90;;;;;;5113972;27;20031;-78
2023/12/04 05:39:41;;;;;;;4.80;4.30;;;3.80;99.90;;;;;;5131089;27;20103;-78
2023/12/04 05:42:07;;;;;;;5.40;4.90;;;3.80;99.90;;;;;;5131665;27;20110;-79
2023/12/04 05:44:34;;;;;;;5.00;4.50;;;3.80;99.90;;;;;;5131038;28;20098;-78
2023/12/04 05:47:00;;;;;;;6.35;4.97;;;3.80;99.90;;;;;;5132119;28;20027;-78
2023/12/04 05:49:26;;;;;;;5.68;4.78;;;3.80;99.90;;;;;;5130996;28;20029;-79
2023/12/04 05:51:51;;;;;;;5.32;4.70;;;3.80;99.90;;;;;;5131780;28;20352;-78
2023/12/04 05:54:17;;;;;;;5.55;4.97;;;3.80;99.90;;;;;;5130534;28;20378;-78
2023/12/04 05:56:43;;;;;;;6.20;5.00;;;3.80;99.90;;;;;;5132014;28;20103;-78
2023/12/04 05:59:08;;;;;;;5.88;4.93;;;3.80;99.90;;;;;;5131892;28;20023;-78
2023/12/04 06:01:34;;;;;;;6.07;5.47;;;3.80;99.90;;;;;;5130801;28;20030;-78
2023/12/04 06:04:00;;;;;;;5.47;4.97;;;3.80;99.90;;;;;;5131430;28;20090;-77
2023/12/04 06:06:26;;;;;;;6.72;5.18;;;3.80;99.90;;;;;;5130719;28;20031;-78
2023/12/04 06:08:52;;;;;;;9.10;5.10;;;3.80;99.90;;;;;;5131188;28;20035;-78
2023/12/04 06:11:18;;;;;;;6.68;5.50;;;3.80;99.90;;;;;;5131553;28;20106;-78
2023/12/04 06:13:44;;;;;;;6.18;4.78;;;3.80;99.90;;;;;;5130723;28;20572;-77
2023/12/04 06:16:10;;;;;;;6.15;5.25;;;3.80;99.90;;;;;;5131421;28;20068;-78
2023/12/04 06:18:35;;;;;;;7.10;5.30;;;3.80;99.90;;;;;;5130932;28;20028;-78
2023/12/04 06:21:01;;;;;;;6.40;5.68;;;3.80;99.90;;;;;;5131441;28;20032;-77
2023/12/04 06:23:27;;;;;;;6.72;6.13;;;3.80;99.90;;;;;;5130886;28;20031;-78
2023/12/04 06:25:53;;;;;;;5.90;5.32;;;3.70;99.90;;;;;;5112436;28;20076;-77
2023/12/04 06:28:19;;;;;;;7.75;6.10;;;3.70;99.90;;;;;;5131948;28;20026;-78
2023/12/04 06:30:45;;;;;;;7.50;6.40;;;3.70;99.90;;;;;;5130591;28;20109;-78
2023/12/04 06:33:12;;;;;;;6.15;5.60;;;3.60;99.90;;;;;;5131375;28;20544;-78
2023/12/04 06:35:39;;;;;;;7.25;6.03;;;3.60;99.90;;;;;;5130573;28;20460;-79
2023/12/04 06:38:08;;;;;;;7.68;6.32;;;3.70;99.90;;;;;;5131329;28;20024;-77
2023/12/04 06:40:35;;;;;;;7.20;5.85;;;3.70;99.90;;;;;;5130574;28;20500;-78
2023/12/04 06:43:01;;;;;;;7.75;6.35;;;3.60;99.90;;;;;;5131384;27;20030;-78
2023/12/04 06:45:27;;;;;;;8.30;5.90;;;3.60;99.90;;;;;;5134138;27;20027;-78
2023/12/04 06:47:54;;;;;;;6.63;6.03;;;3.70;99.90;;;;;;5134841;27;20075;-78
2023/12/04 06:50:20;;;;;;;7.22;5.97;;;3.70;99.90;;;;;;5115987;27;20050;-78
2023/12/04 06:52:46;;;;;;;7.30;5.65;;;3.70;99.90;;;;;;5134203;27;20019;-78
2023/12/04 06:55:13;;;;;;;7.55;6.30;;;3.70;99.90;;;;;;5134718;27;20484;-78
2023/12/04 06:57:38;;;;;;;7.78;6.38;;;3.70;99.90;;;;;;5134132;27;20038;-78
2023/12/04 07:00:06;;;;;;;9.02;6.03;;;3.70;99.90;;;;;;5116153;27;20062;-78
2023/12/04 07:02:32;;;;;;;8.68;5.50;;;3.70;99.90;;;;;;5133990;27;20093;-78
2023/12/04 07:04:58;;;;;;;6.35;5.22;;;3.70;99.90;;;;;;5134092;27;20051;-77
2023/12/04 07:07:23;;;;;;;6.80;6.13;;;3.60;99.90;;;;;;5116032;27;20023;-76
2023/12/04 07:09:49;;;;;;;7.10;6.40;;;3.70;99.90;;;;;;5133602;27;20452;-78
2023/12/04 07:12:15;;;;;;;7.03;6.30;;;3.70;99.90;;;;;;5134522;27;20020;-77
2023/12/04 07:14:41;;;;;;;7.15;6.07;;;3.60;99.90;;;;;;5133489;27;20023;-78
2023/12/04 07:17:07;;;;;;;6.82;6.13;;;3.60;99.90;;;;;;5134070;27;20020;-77
2023/12/04 07:19:33;;;;;;;6.50;5.80;;;3.60;99.90;;;;;;5114735;27;20092;-77
2023/12/04 07:21:59;;;;;;;7.03;5.97;;;3.50;99.90;;;;;;5115985;27;20027;-77
2023/12/04 07:24:26;;;;;;;8.23;6.03;;;3.60;99.90;;;;;;5133999;27;20417;-77
2023/12/04 07:26:52;;;;;;;6.82;5.75;;;3.60;99.90;;;;;;5133134;27;20059;-77
2023/12/04 07:29:17;;;;;;;6.82;5.93;;;3.60;99.90;;;;;;5134012;27;20058;-78
2023/12/04 07:31:43;;;;;;;7.70;5.75;;;3.60;99.90;;;;;;5133714;27;20028;-78
2023/12/04 07:34:09;;;;;;;9.18;5.88;;;3.50;99.90;;;;;;5133874;27;20028;-77
2023/12/04 07:36:35;;;;;;;7.80;6.15;;;3.50;99.90;;;;;;5133600;27;20148;-78
2023/12/04 07:39:01;;;;;;;7.03;5.97;;;3.50;99.90;;;;;;5134235;27;20098;-78
2023/12/04 07:41:26;;;;;;;7.28;6.50;;;3.50;99.90;;;;;;5133789;27;20031;-78
2023/12/04 07:43:52;;;;;;;7.50;6.15;;;3.50;99.90;;;;;;5133308;27;20037;-78
2023/12/04 07:46:18;;;;;;;7.75;6.30;;;3.50;99.90;;;;;;5133790;27;20024;-77
2023/12/04 07:48:44;;;;;;;7.50;6.13;;;3.50;99.90;;;;;;5133291;27;20421;-78
2023/12/04 07:51:10;;;;;;;6.85;6.15;;;3.50;99.90;;;;;;5133615;27;20027;-77
2023/12/04 07:53:35;;;;;;;11.43;6.28;;;3.50;99.90;;;;;;5133159;27;20076;-78
2023/12/04 07:56:05;;;;;;;9.52;6.22;;;3.50;99.90;;;;;;5132657;27;20398;-76
2023/12/04 07:58:31;;;;;;;6.43;5.68;;;3.50;99.90;;;;;;5133205;27;20048;-78
2023/12/04 08:00:57;;;;;;;6.63;5.85;;;3.40;99.90;;;;;;5132897;27;20040;-76
2023/12/04 08:03:26;;;;;;;7.32;5.97;;;3.50;99.90;;;;;;5133377;27;20027;-76
2023/12/04 08:05:52;;;;;;;7.25;6.30;;;3.50;99.90;;;;;;5132497;27;20019;-76
2023/12/04 08:08:17;;;;;;;7.60;5.85;;;3.50;99.90;;;;;;5133299;27;20068;-76
2023/12/04 08:10:43;;;;;;;6.93;6.07;;;3.50;99.90;;;;;;5132573;27;20054;-76
2023/12/04 08:13:09;;;;;;;7.85;6.50;;;3.50;99.90;;;;;;5133045;27;20361;-76
2023/12/04 08:15:35;;;;;;;8.73;6.43;;;3.50;99.90;;;;;;5132287;27;20035;-76
2023/12/04 08:18:00;;;;;;;8.38;6.00;;;3.50;99.90;;;;;;5133178;27;20019;-77
2023/12/04 08:20:26;;;;;;;8.05;6.53;;;3.50;99.90;;;;;;5132937;27;20023;-77
2023/12/04 08:22:52;;;;;;;7.13;6.22;;;3.50;99.90;;;;;;5096987;27;20035;-77
2023/12/04 08:25:18;;;;;;;8.73;7.07;;;3.40;99.90;;;;;;5132841;27;20105;-77
2023/12/04 08:27:44;;;;;;;8.77;6.95;;;3.40;99.90;;;;;;5113887;27;20054;-77
2023/12/04 08:30:09;;;;;;;8.80;6.47;;;3.40;99.90;;;;;;5133050;27;20027;-77
2023/12/04 08:32:35;;;;;;;7.57;6.35;;;3.40;99.90;;;;;;5113931;27;20027;-78
2023/12/04 08:35:01;;;;;;;8.15;6.55;;;3.40;99.90;;;;;;5133082;27;20477;-77
2023/12/04 08:37:27;;;;;;;8.98;7.47;;;3.40;99.90;;;;;;5132695;27;20110;-77
2023/12/04 08:39:53;;;;;;;8.65;6.97;;;3.40;99.90;;;;;;5131930;27;20035;-77
2023/12/04 08:42:19;;;;;;;9.60;7.57;;;3.40;99.90;;;;;;5132630;27;20496;-77
2023/12/04 08:44:47;;;;;;;7.65;6.57;;;3.40;99.90;;;;;;5132258;27;20111;-76
2023/12/04 08:47:13;;;;;;;8.57;6.63;;;3.30;99.90;;;;;;5132334;27;20039;-76
2023/12/04 08:49:40;;;;;;;8.65;6.78;;;3.30;99.90;;;;;;5131727;27;20027;-77
2023/12/04 08:52:06;;;;;;;9.10;7.20;;;3.20;99.90;;;;;;5132318;27;20054;-77
2023/12/04 08:54:32;;;;;;;7.65;6.47;;;3.20;99.90;;;;;;5132756;27;20122;-78
2023/12/04 08:56:58;;;;;;;10.30;7.32;;;3.10;99.90;;;;;;5131889;27;20217;-77
2023/12/04 08:59:24;;;;;;;10.63;7.85;;;3.10;99.90;;;;;;5114177;27;20374;-76
2023/12/04 09:01:50;;;;;;;8.75;7.25;;;3.10;99.90;;;;;;5132586;27;20019;-77
2023/12/04 09:04:15;;;;;;;10.15;7.65;;;3.00;99.90;;;;;;5132607;27;20019;-78
2023/12/04 09:06:41;;;;;;;11.02;8.05;;;3.10;99.90;;;;;;5132197;27;20019;-77
2023/12/04 09:09:07;;;;;;;9.85;7.45;;;3.10;99.90;;;;;;5132505;27;20102;-78
2023/12/04 09:11:33;;;;;;;8.02;6.72;;;3.10;99.90;;;;;;5113204;27;20511;-78
2023/12/04 09:13:59;;;;;;;10.77;7.38;;;3.10;99.90;;;;;;5131898;27;20098;-77
2023/12/04 09:16:24;;;;;;;8.43;6.93;;;3.10;99.90;;;;;;5131593;27;20023;-78
2023/12/04 09:18:50;;;;;;;7.90;6.65;;;3.10;99.90;;;;;;5131510;27;20023;-78
2023/12/04 09:21:16;;;;;;;8.35;7.20;;;3.10;99.90;;;;;;5131677;27;20429;-77
2023/12/04 09:23:42;;;;;;;10.57;7.20;;;3.10;99.90;;;;;;5131450;27;20079;-78
2023/12/04 09:26:08;;;;;;;9.18;7.10;;;3.10;99.90;;;;;;5132222;27;20113;-78
2023/12/04 09:28:36;;;;;;;7.45;6.55;;;3.10;99.90;;;;;;5131445;27;20391;-77
2023/12/04 09:31:02;;;;;;;7.80;6.57;;;3.10;99.90;;;;;;5131351;27;20027;-77
2023/12/04 09:33:28;;;;;;;8.95;7.22;;;3.10;99.90;;;;;;5131836;27;20026;-77
2023/12/04 09:35:54;;;;;;;9.15;7.45;;;3.10;99.90;;;;;;5131637;27;20024;-77
2023/12/04 09:38:19;;;;;;;9.63;6.85;;;3.10;99.90;;;;;;5131629;27;20027;-77
2023/12/04 09:40:45;;;;;;;10.15;7.40;;;3.10;99.90;;;;;;5130731;27;20063;-78
2023/12/04 09:43:11;;;;;;;9.65;6.90;;;3.10;99.90;;;;;;5131165;27;20051;-77
2023/12/04 09:45:38;;;;;;;10.63;7.40;;;3.10;99.90;;;;;;5130895;28;20043;-78
2023/12/04 09:48:06;;;;;;;10.75;7.35;;;3.10;99.90;;;;;;5112818;28;20023;-78
2023/12/04 09:50:31;;;;;;;9.55;7.55;;;3.10;99.90;;;;;;5131658;28;20031;-78
2023/12/04 09:53:01;;;;;;;8.90;7.30;;;3.10;99.90;;;;;;5130808;28;20643;-76
2023/12/04 09:55:27;;;;;;;9.75;7.40;;;3.10;99.90;;;;;;5131203;28;20054;-76
2023/12/04 09:57:54;;;;;;;8.30;7.05;;;3.10;99.90;;;;;;5130516;28;20027;-77
2023/12/04 10:00:21;;;;;;;9.50;7.15;;;3.10;99.90;;;;;;5131608;28;20046;-76
2023/12/04 10:02:48;;;;;;;9.30;7.38;;;3.10;99.90;;;;;;5112967;28;20038;-77
2023/12/04 10:05:14;;;;;;;10.98;7.25;;;3.20;99.90;;;;;;5112764;28;20050;-76
2023/12/04 10:07:39;;;;;;;11.70;7.97;;;3.20;99.90;;;;;;5130625;28;20380;-80
2023/12/04 10:10:06;;;;;;;9.00;7.32;;;3.20;99.90;;;;;;5112207;28;20055;-78
2023/12/04 10:12:33;;;;;;;9.05;7.03;;;3.20;99.90;;;;;;5131470;28;20027;-76
2023/12/04 10:15:13;;;;;;;9.77;6.57;;;3.20;99.90;;;;;;5130571;28;20629;-77
2023/12/04 10:17:41;;;;;;;8.63;6.75;;;3.30;99.90;;;;;;5130679;27;20081;-77
2023/12/04 10:20:17;;;;;;;8.07;6.63;;;3.30;99.90;;;;;;5134621;27;20113;-77
2023/12/04 10:22:59;;;;;;;8.65;7.03;;;3.30;99.90;;;;;;5134791;27;20023;-79
2023/12/04 10:25:27;;;;;;;9.40;7.10;;;3.40;99.90;;;;;;5135376;27;20428;-78
2023/12/04 10:27:54;;;;;;;9.77;7.50;;;3.40;99.90;;;;;;5134638;27;20063;-77
2023/12/04 10:30:32;;;;;;;11.07;7.72;;;3.40;99.90;;;;;;5135088;27;20134;-78
2023/12/04 10:33:00;;;;;;;10.20;7.32;;;3.50;99.90;;;;;;5134439;27;20355;-76
2023/12/04 10:35:33;;;;;;;8.50;7.10;;;3.50;99.90;;;;;;5134776;27;20028;-76
2023/12/04 10:37:59;;;;;;;11.10;7.47;;;3.50;99.90;;;;;;5134225;27;20030;-78
2023/12/04 10:40:25;;;;;;;9.75;7.00;;;3.50;99.90;;;;;;5134793;27;20373;-76
2023/12/04 10:43:09;;;;;;;7.97;6.97;;;3.50;99.90;;;;;;5134414;27;20368;-76
2023/12/04 10:45:36;;;;;;;9.20;7.10;;;3.60;99.90;;;;;;5115949;27;20019;-77
2023/12/04 10:48:04;;;;;;;11.32;6.80;;;3.60;99.90;;;;;;5134407;27;20090;-77
2023/12/04 10:50:39;;;;;;;11.27;7.65;;;3.60;99.90;;;;;;5134375;27;20106;-77
2023/12/04 10:53:07;;;;;;;8.55;7.05;;;3.70;99.90;;;;;;5133461;27;20059;-76
2023/12/04 10:55:33;;;;;;;11.13;7.65;;;3.60;99.90;;;;;;5133919;27;20207;-77
2023/12/04 10:58:05;;;;;;;10.43;6.90;;;3.70;99.90;;;;;;5133182;27;20376;-77
2023/12/04 11:00:34;;;;;;;10.77;6.83;;;3.70;99.90;;;;;;5133638;27;20137;-79
2023/12/04 11:03:12;;;;;;;7.70;6.47;;;3.70;99.90;;;;;;5133832;27;20021;-78
2023/12/04 11:05:40;;;;;;;8.98;6.32;;;3.80;99.90;;;;;;5116033;27;20357;-78
2023/12/04 11:08:08;;;;;;;8.30;6.63;;;3.80;99.90;;;;;;5133489;27;20023;-78
2023/12/04 11:10:46;;;;;;;8.45;6.43;;;3.80;99.90;;;;;;5133914;27;20432;-78
2023/12/04 11:13:30;;;;;;;8.07;6.85;;;3.80;99.90;;;;;;5134178;27;20031;-78
2023/12/04 11:16:02;;;;;;;8.85;7.07;;;3.80;99.90;;;;;;5133282;27;20023;-78
2023/12/04 11:18:30;;;;;;;9.60;7.18;;;3.90;99.90;;;;;;5134202;27;20123;-78
2023/12/04 11:21:06;;;;;;;8.43;6.68;;;3.90;99.90;;;;;;5115350;27;20059;-77
2023/12/04 11:23:32;;;;;;;7.75;6.93;;;3.90;99.90;;;;;;5133629;27;20033;-77
2023/12/04 11:26:00;;;;;;;12.35;7.25;;;3.90;99.90;;;;;;5133343;27;20027;-78
2023/12/04 11:28:27;;;;;;;9.32;7.03;;;3.90;99.90;;;;;;5134084;27;20038;-77
2023/12/04 11:30:54;;;;;;;9.13;6.93;;;3.90;99.90;;;;;;5133175;27;20027;-78
2023/12/04 11:33:20;;;;;;;8.68;7.00;;;4.00;99.90;;;;;;5133925;27;20064;-78
2023/12/04 11:35:46;;;;;;;11.00;7.45;;;4.00;99.90;;;;;;5133436;27;20111;-80
2023/12/04 11:38:15;;;;;;;10.07;7.50;;;4.10;99.90;;;;;;5133594;27;20115;-78
2023/12/04 11:40:42;;;;;;;12.55;6.95;;;4.10;99.90;;;;;;5133376;27;20035;-77
2023/12/04 11:43:25;;;;;;;10.65;6.50;;;4.10;99.90;;;;;;5132865;27;20409;-78
2023/12/04 11:45:51;;;;;;;10.95;7.65;;;4.10;99.90;;;;;;5114632;27;20095;-79
2023/12/04 11:48:21;;;;;;;9.07;7.20;;;4.20;99.90;;;;;;5133372;27;20448;-78
2023/12/04 11:50:47;;;;;;;10.30;6.55;;;4.10;99.90;;;;;;5132783;27;20031;-79
2023/12/04 11:53:13;;;;;;;9.98;7.25;;;4.20;99.90;;;;;;5133532;27;20118;-78
2023/12/04 11:55:41;;;;;;;9.90;6.15;;;4.20;99.90;;;;;;5133775;27;20377;-79
2023/12/04 11:58:11;;;;;;;8.82;6.57;;;4.30;99.90;;;;;;5132715;27;20026;-78
2023/12/04 12:00:37;;;;;;;10.63;7.43;;;4.30;99.90;;;;;;5133685;27;20376;-78
2023/12/04 12:03:09;;;;;;;8.98;6.53;;;4.30;99.90;;;;;;5132574;27;20034;-79
2023/12/04 12:05:38;;;;;;;12.73;6.97;;;4.30;99.90;;;;;;5133202;27;20019;-78
2023/12/04 12:08:05;;;;;;;9.40;6.50;;;4.40;99.90;;;;;;5132620;27;20035;-78
2023/12/04 12:10:32;;;;;;;9.93;6.80;;;4.40;99.90;;;;;;5114569;27;20395;-78
2023/12/04 12:12:58;;;;;;;9.45;6.40;;;4.40;99.90;;;;;;5132448;27;20019;-78
2023/12/04 12:15:24;;;;;;;11.00;6.18;;;4.40;99.90;;;;;;5133178;27;20035;-77
2023/12/04 12:17:53;;;;;;;10.25;5.88;;;4.50;99.90;;;;;;5132353;27;20130;-78
2023/12/04 12:20:22;;;;;;;7.85;6.30;;;4.50;99.90;;;;;;5113815;27;20027;-78
2023/12/04 12:22:49;;;;;;;9.27;6.38;;;4.60;99.90;;;;;;5132039;27;20023;-78
2023/12/04 12:25:15;;;;;;;11.05;6.10;;;4.60;99.90;;;;;;5132443;27;20362;-78
2023/12/04 12:27:42;;;;;;;9.23;6.30;;;4.60;99.90;;;;;;5133073;27;20106;-78
2023/12/04 12:30:08;;;;;;;9.30;5.57;;;4.60;99.90;;;;;;5131896;27;20023;-78
2023/12/04 12:32:35;;;;;;;9.35;6.43;;;4.60;99.90;;;;;;5132900;27;20113;-78
2023/12/04 12:35:01;;;;;;;8.13;6.35;;;4.60;99.90;;;;;;5131804;27;20031;-78
2023/12/04 12:37:28;;;;;;;8.70;5.68;;;4.60;99.90;;;;;;5132735;27;20080;-78
2023/12/04 12:39:54;;;;;;;9.80;6.68;;;4.70;99.90;;;;;;5131866;27;20095;-78
2023/12/04 12:42:24;;;;;;;8.32;6.50;;;4.70;99.90;;;;;;5131146;27;20031;-78
2023/12/04 12:44:50;;;;;;;9.82;7.03;;;4.70;99.90;;;;;;5131510;27;20113;-78
2023/12/04 12:47:16;;;;;;;9.35;6.60;;;4.70;99.90;;;;;;5135048;27;20059;-78
2023/12/04 12:49:43;;;;;;;9.02;6.47;;;4.80;99.90;;;;;;5132266;27;20032;-78
2023/12/04 12:52:09;;;;;;;10.00;7.40;;;4.80;99.90;;;;;;5131960;27;20033;-79